Time;durP1;ratioP1;P1;durP2;ratioP2;P2;SDS_P1;SDS_P2;PMS_P1;PMS_P2;Temp;Humidity;BMP_temperature;BMP_pressure;BME280_temperature;BME280_humidity;BME280_pressure;Samples;Min_cycle;Max_cycle;Signal;HPM_P1;HPM_P2
2021/05/13 00:00:22;;;;;;;11.13;6.53;;;;;;;10.30;100.00;100251.59;5058130;28;20095;-59
2021/05/13 00:02:50;;;;;;;13.27;5.60;;;;;;;10.29;100.00;100254.44;5059156;28;20306;-59
2021/05/13 00:05:17;;;;;;;8.50;5.45;;;;;;;10.08;100.00;100260.38;5057617;28;20040;-59
2021/05/13 00:07:45;;;;;;;10.30;5.15;;;;;;;9.93;100.00;100255.78;5059294;28;20049;-59
2021/05/13 00:10:16;;;;;;;10.48;6.32;;;;;;;9.94;100.00;100262.78;5056498;28;20064;-59
2021/05/13 00:12:49;;;;;;;13.63;6.30;;;;;;;10.00;100.00;100251.41;5058909;28;20048;-59
2021/05/13 00:15:19;;;;;;;12.75;5.97;;;;;;;10.10;100.00;100253.03;5056365;28;20048;-59
2021/05/13 00:17:46;;;;;;;11.85;6.18;;;;;;;10.16;100.00;100249.66;5060082;28;20098;-59
2021/05/13 00:20:19;;;;;;;11.23;6.35;;;;;;;10.19;100.00;100233.31;5056212;28;20134;-59
2021/05/13 00:22:47;;;;;;;11.38;6.60;;;;;;;10.21;100.00;100241.97;5059252;28;20045;-59
2021/05/13 00:25:15;;;;;;;12.07;7.05;;;;;;;10.25;100.00;100237.97;5060416;28;20057;-59
2021/05/13 00:27:42;;;;;;;10.93;6.53;;;;;;;10.33;100.00;100240.59;5053619;28;20044;-58
2021/05/13 00:30:10;;;;;;;16.33;6.57;;;;;;;10.40;100.00;100238.06;5054393;28;20045;-58
2021/05/13 00:32:38;;;;;;;11.18;6.47;;;;;;;10.29;100.00;100244.63;5057952;28;20462;-59
2021/05/13 00:35:06;;;;;;;10.00;6.65;;;;;;;10.29;100.00;100233.09;5056967;28;20214;-59
2021/05/13 00:37:34;;;;;;;9.82;7.03;;;;;;;10.30;100.00;100240.91;5058353;28;20045;-59
2021/05/13 00:40:03;;;;;;;11.93;6.35;;;;;;;10.36;100.00;100239.41;5055788;28;20041;-59
2021/05/13 00:42:31;;;;;;;9.50;6.05;;;;;;;10.30;100.00;100243.59;5057650;28;20484;-59
2021/05/13 00:44:58;;;;;;;13.98;6.38;;;;;;;10.20;100.00;100236.81;5060554;28;20048;-58
2021/05/13 00:47:28;;;;;;;13.35;6.32;;;;;;;10.30;100.00;100232.09;5058976;28;20075;-58
2021/05/13 00:49:55;;;;;;;9.30;6.13;;;;;;;10.21;100.00;100233.97;5064650;28;20041;-58
2021/05/13 00:52:24;;;;;;;11.13;6.78;;;;;;;10.24;100.00;100232.81;5064739;28;20078;-59
2021/05/13 00:54:52;;;;;;;12.43;7.03;;;;;;;10.25;100.00;100235.28;5059573;28;20419;-59
2021/05/13 00:57:21;;;;;;;11.25;6.68;;;;;;;10.13;100.00;100229.50;5063221;28;20056;-59
2021/05/13 00:59:53;;;;;;;9.38;5.43;;;;;;;10.17;100.00;100228.16;5060700;28;20045;-59
2021/05/13 01:02:20;;;;;;;14.35;6.65;;;;;;;10.09;100.00;100225.53;5062702;28;20041;-59
2021/05/13 01:04:48;;;;;;;16.63;6.57;;;;;;;9.91;100.00;100220.44;5058472;28;20051;-59
2021/05/13 01:07:15;;;;;;;12.48;6.88;;;;;;;9.90;100.00;100224.13;5059820;28;20316;-59
2021/05/13 01:09:43;;;;;;;13.05;7.15;;;;;;;9.79;100.00;100221.81;5062537;28;20044;-59
2021/05/13 01:12:15;;;;;;;15.60;7.38;;;;;;;9.69;100.00;100226.53;5058851;28;20044;-59
2021/05/13 01:14:45;;;;;;;13.70;7.20;;;;;;;9.66;100.00;100211.72;5060057;28;21290;-59
2021/05/13 01:17:24;;;;;;;11.73;7.50;;;;;;;9.69;100.00;100218.53;5059354;28;20052;-59
2021/05/13 01:19:55;;;;;;;14.10;6.80;;;;;;;9.60;100.00;100217.72;5062074;28;20045;-59
2021/05/13 01:22:24;;;;;;;14.43;7.28;;;;;;;9.48;100.00;100212.78;5059641;28;20083;-59
2021/05/13 01:24:53;;;;;;;16.15;8.07;;;;;;;9.48;100.00;100214.59;5057011;28;20052;-59
2021/05/13 01:27:21;;;;;;;15.70;7.65;;;;;;;9.35;100.00;100203.63;5064283;28;20447;-60
2021/05/13 01:29:49;;;;;;;12.45;7.70;;;;;;;9.34;100.00;100209.97;5065635;28;20098;-59
2021/05/13 01:32:19;;;;;;;13.05;7.60;;;;;;;9.23;100.00;100211.97;5062036;28;20041;-59
2021/05/13 01:34:46;;;;;;;10.10;6.50;;;;;;;9.18;100.00;100206.31;5061308;28;20420;-59
2021/05/13 01:37:16;;;;;;;12.18;7.30;;;;;;;9.09;100.00;100199.34;5058643;28;20043;-59
2021/05/13 01:39:44;;;;;;;10.93;6.90;;;;;;;9.06;100.00;100197.03;5062607;28;20035;-59
2021/05/13 01:42:13;;;;;;;14.20;7.50;;;;;;;9.09;100.00;100202.03;5063669;28;20245;-59
2021/05/13 01:44:43;;;;;;;15.02;7.47;;;;;;;9.16;100.00;100200.34;5059847;28;20333;-59
2021/05/13 01:47:11;;;;;;;14.43;6.88;;;;;;;9.03;100.00;100197.34;5059893;28;21039;-59
2021/05/13 01:49:39;;;;;;;10.38;6.40;;;;;;;8.94;100.00;100196.53;5061410;28;20451;-59
2021/05/13 01:52:06;;;;;;;11.85;6.95;;;;;;;8.99;100.00;100183.53;5062624;28;20419;-59
2021/05/13 01:54:34;;;;;;;11.02;6.93;;;;;;;8.97;100.00;100190.84;5057924;28;20049;-59
2021/05/13 01:57:03;;;;;;;13.05;6.72;;;;;;;8.91;100.00;100179.03;5063753;28;20041;-59
2021/05/13 01:59:31;;;;;;;18.27;7.72;;;;;;;8.84;100.00;100186.03;5062831;28;20036;-59
2021/05/13 02:01:59;;;;;;;14.43;7.20;;;;;;;8.89;100.00;100167.75;5059288;28;20059;-59
2021/05/13 02:04:27;;;;;;;15.00;7.30;;;;;;;8.89;100.00;100177.56;5059295;28;20127;-59
2021/05/13 02:06:55;;;;;;;15.55;7.20;;;;;;;8.90;100.00;100169.41;5061257;28;20333;-59
2021/05/13 02:09:24;;;;;;;12.82;6.78;;;;;;;8.89;100.00;100170.41;5058200;28;20539;-59
2021/05/13 02:11:51;;;;;;;13.30;6.43;;;;;;;8.89;100.00;100172.25;5060593;28;20044;-59
2021/05/13 02:14:19;;;;;;;10.93;6.88;;;;;;;8.88;100.00;100166.06;5061772;28;20263;-59
2021/05/13 02:16:46;;;;;;;14.73;7.25;;;;;;;8.81;100.00;100172.25;5063278;28;20048;-59
2021/05/13 02:19:14;;;;;;;13.57;7.38;;;;;;;8.94;100.00;100164.56;5060043;28;20518;-59
2021/05/13 02:21:42;;;;;;;14.13;8.55;;;;;;;8.92;100.00;100164.75;5057016;28;20448;-59
2021/05/13 02:24:09;;;;;;;18.08;8.25;;;;;;;8.88;100.00;100159.94;5062098;28;20052;-59
2021/05/13 02:26:37;;;;;;;12.25;7.63;;;;;;;8.86;100.00;100157.44;5059428;28;20333;-59
2021/05/13 02:29:04;;;;;;;12.02;6.82;;;;;;;8.84;100.00;100153.28;5062218;28;20052;-59
2021/05/13 02:31:33;;;;;;;12.75;7.65;;;;;;;8.91;100.00;100149.75;5056360;28;20160;-59
2021/05/13 02:34:00;;;;;;;14.55;7.95;;;;;;;8.92;100.00;100155.94;5058304;28;20037;-60
2021/05/13 02:36:27;;;;;;;16.40;7.55;;;;;;;8.95;100.00;100148.41;5058997;28;20328;-59
2021/05/13 02:38:55;;;;;;;15.77;7.47;;;;;;;9.00;100.00;100142.59;5061799;28;20440;-59
2021/05/13 02:41:22;;;;;;;11.57;7.63;;;;;;;9.10;100.00;100139.72;5061233;28;20067;-59
2021/05/13 02:43:49;;;;;;;11.70;6.85;;;;;;;9.16;100.00;100141.75;5056845;28;20059;-59
2021/05/13 02:46:17;;;;;;;11.73;7.30;;;;;;;9.19;100.00;100138.72;5061797;28;20047;-59
2021/05/13 02:48:46;;;;;;;14.70;6.85;;;;;;;9.21;100.00;100147.38;5062568;28;20199;-59
2021/05/13 02:51:13;;;;;;;11.88;7.82;;;;;;;9.26;100.00;100146.88;5057496;28;20048;-59
2021/05/13 02:53:41;;;;;;;11.88;6.78;;;;;;;9.32;100.00;100151.50;5056648;28;20037;-59
2021/05/13 02:56:08;;;;;;;11.85;6.50;;;;;;;9.48;100.00;100153.28;5062956;28;20041;-59
2021/05/13 02:58:35;;;;;;;10.32;6.70;;;;;;;9.51;100.00;100144.13;5058124;28;20064;-59
2021/05/13 03:01:10;;;;;;;15.13;7.90;;;;;;;9.44;100.00;100143.97;5060738;28;20044;-59
2021/05/13 03:03:37;;;;;;;11.60;6.43;;;;;;;9.55;100.00;100135.59;5059920;28;20047;-59
2021/05/13 03:06:06;;;;;;;11.98;6.88;;;;;;;9.50;100.00;100132.63;5061770;28;20033;-59
2021/05/13 03:08:33;;;;;;;13.15;7.55;;;;;;;9.58;100.00;100129.94;5057079;28;20049;-59
2021/05/13 03:11:00;;;;;;;14.30;6.78;;;;;;;9.54;100.00;100128.63;5060468;28;20075;-59
2021/05/13 03:13:28;;;;;;;14.40;7.00;;;;;;;9.46;100.00;100125.97;5054962;28;20049;-59
2021/05/13 03:15:55;;;;;;;13.30;7.00;;;;;;;9.50;100.00;100118.47;5060715;28;20083;-59
2021/05/13 03:18:25;;;;;;;14.07;8.15;;;;;;;9.53;100.00;100115.47;5057732;28;20051;-59
2021/05/13 03:20:57;;;;;;;12.35;7.30;;;;;;;9.53;100.00;100126.13;5060639;28;20354;-59
2021/05/13 03:23:30;;;;;;;12.70;7.18;;;;;;;9.47;100.00;100117.00;5060143;28;20667;-59
2021/05/13 03:26:00;;;;;;;11.80;7.07;;;;;;;9.37;100.00;100113.69;5058980;28;20045;-59
2021/05/13 03:28:28;;;;;;;11.15;7.38;;;;;;;9.35;100.00;100119.19;5060240;28;20029;-59
2021/05/13 03:30:56;;;;;;;10.40;7.05;;;;;;;9.24;100.00;100117.75;5057910;28;20075;-59
2021/05/13 03:33:24;;;;;;;10.88;7.28;;;;;;;9.34;100.00;100114.84;5060351;28;20048;-59
2021/05/13 03:35:51;;;;;;;15.38;8.45;;;;;;;9.40;100.00;100116.00;5058385;28;20052;-59
2021/05/13 03:38:18;;;;;;;12.80;7.72;;;;;;;9.35;100.00;100110.38;5061093;28;20041;-59
2021/05/13 03:40:48;;;;;;;10.30;7.47;;;;;;;9.32;100.00;100103.53;5059068;28;20323;-59
2021/05/13 03:43:16;;;;;;;12.30;7.38;;;;;;;9.41;100.00;100104.34;5061838;28;20048;-59
2021/05/13 03:45:43;;;;;;;13.52;7.20;;;;;;;9.49;100.00;100101.66;5059476;28;20474;-59
2021/05/13 03:48:11;;;;;;;12.05;7.80;;;;;;;9.53;100.00;100105.63;5057161;28;20345;-59
2021/05/13 03:50:39;;;;;;;13.18;7.53;;;;;;;9.54;100.00;100101.13;5055210;28;20041;-59
2021/05/13 03:53:07;;;;;;;15.25;8.38;;;;;;;9.48;100.00;100097.31;5056101;28;20104;-59
2021/05/13 03:55:35;;;;;;;13.63;7.55;;;;;;;9.41;100.00;100107.84;5053817;28;20055;-59
2021/05/13 03:58:06;;;;;;;13.60;7.03;;;;;;;9.40;100.00;100100.00;5062238;28;20356;-60
2021/05/13 04:00:42;;;;;;;15.18;7.50;;;;;;;9.45;100.00;100103.00;5056934;28;20053;-62
2021/05/13 04:03:12;;;;;;;12.43;8.00;;;;;;;9.46;100.00;100102.00;5059158;28;20052;-59
2021/05/13 04:05:39;;;;;;;10.90;7.32;;;;;;;9.54;100.00;100101.97;5058362;28;20036;-59
2021/05/13 04:08:07;;;;;;;15.38;7.93;;;;;;;9.61;100.00;100097.59;5056693;28;20427;-59
2021/05/13 04:10:35;;;;;;;13.35;8.70;;;;;;;9.71;100.00;100100.06;5060164;28;20366;-59
2021/05/13 04:13:06;;;;;;;12.57;8.05;;;;;;;9.72;100.00;100092.88;5058669;28;20075;-59
2021/05/13 04:15:51;;;;;;;14.15;7.32;;;;;;;9.71;100.00;100086.72;5052306;28;20066;-59
2021/05/13 04:18:19;;;;;;;12.95;7.43;;;;;;;9.78;100.00;100084.16;5058834;28;20040;-59
2021/05/13 04:20:46;;;;;;;12.48;7.57;;;;;;;9.89;100.00;100090.94;5063632;28;20056;-59
2021/05/13 04:23:14;;;;;;;14.43;7.72;;;;;;;9.97;100.00;100086.38;5065889;28;20331;-59
2021/05/13 04:25:41;;;;;;;12.35;7.18;;;;;;;10.02;100.00;100083.16;5061224;28;20342;-59
2021/05/13 04:28:09;;;;;;;12.13;7.00;;;;;;;10.03;100.00;100076.84;5058488;28;20336;-59
2021/05/13 04:30:37;;;;;;;13.10;7.57;;;;;;;10.20;100.00;100080.22;5062765;28;20455;-59
2021/05/13 04:33:04;;;;;;;10.50;7.03;;;;;;;10.19;100.00;100081.22;5060634;28;20441;-58
2021/05/13 04:35:32;;;;;;;12.85;7.78;;;;;;;10.27;100.00;100070.47;5065515;28;20062;-58
2021/05/13 04:37:59;;;;;;;12.25;7.70;;;;;;;10.32;100.00;100072.63;5063284;28;20045;-58
2021/05/13 04:40:27;;;;;;;12.43;7.45;;;;;;;10.30;100.00;100063.97;5064849;28;20051;-58
2021/05/13 04:42:55;;;;;;;12.82;7.05;;;;;;;10.31;100.00;100065.63;5059835;28;20040;-58
2021/05/13 04:45:23;;;;;;;12.27;6.95;;;;;;;10.40;100.00;100067.22;5058179;28;20041;-58
2021/05/13 04:48:06;;;;;;;12.23;7.70;;;;;;;10.44;100.00;100070.38;5066628;28;20059;-58
2021/05/13 04:50:34;;;;;;;14.77;7.65;;;;;;;10.48;100.00;100067.16;5062030;28;20033;-58
2021/05/13 04:53:07;;;;;;;11.68;7.20;;;;;;;10.48;100.00;100075.19;5057813;28;20139;-58
2021/05/13 04:55:35;;;;;;;13.05;7.60;;;;;;;10.49;100.00;100073.34;5062586;28;20132;-58
2021/05/13 04:58:03;;;;;;;10.43;6.78;;;;;;;10.56;100.00;100074.28;5061740;28;20041;-58
2021/05/13 05:00:32;;;;;;;14.77;7.97;;;;;;;10.73;100.00;100068.78;5060421;28;20049;-58
2021/05/13 05:02:59;;;;;;;10.95;6.70;;;;;;;10.74;100.00;100070.44;5062826;28;20331;-59
2021/05/13 05:05:27;;;;;;;11.32;6.82;;;;;;;10.80;100.00;100073.22;5062590;28;20076;-58
2021/05/13 05:07:54;;;;;;;11.75;7.32;;;;;;;10.97;100.00;100081.03;5061287;28;20049;-58
2021/05/13 05:10:22;;;;;;;13.70;8.10;;;;;;;11.11;100.00;100077.53;5062673;28;20330;-58
2021/05/13 05:12:49;;;;;;;10.38;6.88;;;;;;;11.17;100.00;100075.97;5058966;28;20103;-58
2021/05/13 05:15:16;;;;;;;11.15;8.38;;;;;;;11.35;100.00;100081.78;5058245;28;20052;-58
2021/05/13 05:17:45;;;;;;;13.68;7.68;;;;;;;11.37;100.00;100077.06;5062264;28;20325;-58
2021/05/13 05:20:13;;;;;;;14.30;7.43;;;;;;;11.77;100.00;100075.91;5063845;28;20135;-58
2021/05/13 05:22:40;;;;;;;9.43;6.82;;;;;;;12.14;100.00;100076.72;5060746;28;20052;-58
2021/05/13 05:25:08;;;;;;;11.85;8.23;;;;;;;11.96;100.00;100075.28;5057867;28;20072;-58
2021/05/13 05:27:35;;;;;;;11.02;6.88;;;;;;;12.24;100.00;100082.56;5063307;28;20048;-59
2021/05/13 05:30:04;;;;;;;9.25;7.10;;;;;;;12.27;100.00;100073.31;5059187;28;20123;-59
2021/05/13 05:32:31;;;;;;;12.32;7.35;;;;;;;12.15;100.00;100086.38;5061978;28;20191;-59
2021/05/13 05:35:03;;;;;;;11.60;7.00;;;;;;;11.99;100.00;100076.75;5058081;28;20043;-59
2021/05/13 05:37:31;;;;;;;11.15;6.55;;;;;;;12.02;100.00;100071.03;5063681;28;20602;-59
2021/05/13 05:39:58;;;;;;;13.85;7.10;;;;;;;12.20;100.00;100070.59;5059554;28;20504;-59
2021/05/13 05:42:26;;;;;;;12.23;6.82;;;;;;;12.10;100.00;100067.41;5060564;28;20053;-59
2021/05/13 05:44:53;;;;;;;15.05;7.82;;;;;;;12.36;100.00;100064.97;5057401;28;20036;-59
2021/05/13 05:47:20;;;;;;;10.50;6.70;;;;;;;12.29;100.00;100058.72;5061003;28;20056;-58
2021/05/13 05:49:48;;;;;;;9.07;6.18;;;;;;;12.21;100.00;100056.19;5063499;28;20495;-61
2021/05/13 05:52:16;;;;;;;15.50;7.25;;;;;;;12.39;100.00;100055.72;5059324;28;20459;-61
2021/05/13 05:54:43;;;;;;;11.23;7.88;;;;;;;12.53;100.00;100051.28;5057942;28;20099;-59
2021/05/13 05:57:11;;;;;;;20.48;10.20;;;;;;;12.57;100.00;100049.88;5060715;28;20133;-61
2021/05/13 05:59:39;;;;;;;19.92;10.95;;;;;;;12.46;100.00;100047.72;5060644;28;20448;-61
2021/05/13 06:02:06;;;;;;;13.13;9.18;;;;;;;12.67;100.00;100055.75;5060532;28;20044;-61
2021/05/13 06:04:33;;;;;;;9.00;6.05;;;;;;;12.67;100.00;100045.03;5056813;28;20049;-60
2021/05/13 06:07:01;;;;;;;14.07;7.40;;;;;;;12.53;100.00;100043.25;5065023;28;20119;-60
2021/05/13 06:09:29;;;;;;;12.32;7.40;;;;;;;12.66;100.00;100047.88;5062820;28;20072;-61
2021/05/13 06:11:57;;;;;;;16.02;9.13;;;;;;;12.67;100.00;100046.84;5062051;28;20040;-61
2021/05/13 06:14:25;;;;;;;10.38;6.90;;;;;;;12.81;100.00;100042.41;5061276;28;20052;-61
2021/05/13 06:16:52;;;;;;;12.98;6.47;;;;;;;12.87;100.00;100046.97;5061647;28;20048;-59
2021/05/13 06:19:21;;;;;;;15.63;7.40;;;;;;;13.12;100.00;100046.50;5058493;28;20048;-59
2021/05/13 06:21:48;;;;;;;9.15;6.13;;;;;;;13.51;100.00;100050.41;5059458;28;20125;-59
2021/05/13 06:24:18;;;;;;;11.23;5.72;;;;;;;13.80;100.00;100043.91;5060157;28;20056;-59
2021/05/13 06:26:56;;;;;;;9.60;5.95;;;;;;;13.65;100.00;100044.09;5063466;28;20043;-59
2021/05/13 06:29:25;;;;;;;9.98;6.32;;;;;;;13.70;100.00;100044.28;5056776;28;20037;-59
2021/05/13 06:31:52;;;;;;;13.82;7.55;;;;;;;13.52;100.00;100046.69;5059453;28;20052;-59
2021/05/13 06:34:20;;;;;;;9.32;6.38;;;;;;;13.56;100.00;100045.28;5054778;28;20033;-59
2021/05/13 06:36:47;;;;;;;11.40;7.28;;;;;;;13.71;100.00;100040.56;5061881;28;20048;-59
2021/05/13 06:39:15;;;;;;;12.20;7.75;;;;;;;13.46;100.00;100036.78;5057790;28;20067;-59
2021/05/13 06:41:42;;;;;;;10.57;6.63;;;;;;;13.70;100.00;100038.91;5059253;28;20060;-59
2021/05/13 06:44:10;;;;;;;9.70;6.68;;;;;;;13.77;100.00;100034.38;5057467;28;20049;-60
2021/05/13 06:46:38;;;;;;;12.48;5.95;;;;;;;13.64;100.00;100028.16;5058270;28;20041;-59
2021/05/13 06:49:05;;;;;;;10.05;6.35;;;;;;;13.52;100.00;100031.44;5064213;28;20052;-59
2021/05/13 06:51:33;;;;;;;13.32;5.95;;;;;;;13.53;100.00;100032.28;5058995;28;20147;-59
2021/05/13 06:54:00;;;;;;;10.30;5.68;;;;;;;13.45;100.00;100024.41;5054455;28;20067;-59
2021/05/13 06:56:28;;;;;;;11.02;6.65;;;;;;;13.58;100.00;100035.16;5059330;28;20045;-59
2021/05/13 06:58:55;;;;;;;12.10;6.20;;;;;;;13.60;100.00;100028.56;5063692;28;20436;-59
2021/05/13 07:01:23;;;;;;;12.25;5.78;;;;;;;13.56;100.00;100034.53;5062122;28;20048;-60
2021/05/13 07:03:51;;;;;;;9.48;6.93;;;;;;;13.68;100.00;100026.72;5054505;28;20049;-60
2021/05/13 07:06:18;;;;;;;10.75;6.15;;;;;;;13.94;100.00;100028.66;5059662;28;20045;-60
2021/05/13 07:08:45;;;;;;;8.65;6.20;;;;;;;13.85;100.00;100025.34;5061083;28;20049;-60
2021/05/13 07:11:13;;;;;;;9.75;6.50;;;;;;;13.90;100.00;100030.09;5057354;28;20052;-60
2021/05/13 07:13:40;;;;;;;14.93;8.27;;;;;;;13.42;100.00;100026.47;5056134;28;20048;-60
2021/05/13 07:16:08;;;;;;;18.80;7.18;;;;;;;13.11;100.00;100034.13;5059189;28;20044;-60
2021/05/13 07:18:36;;;;;;;10.23;5.57;;;;;;;13.18;100.00;100032.31;5060512;28;20069;-60
2021/05/13 07:21:04;;;;;;;17.20;6.88;;;;;;;13.37;100.00;100039.63;5058610;28;20040;-60
2021/05/13 07:23:32;;;;;;;15.82;6.43;;;;;;;13.26;100.00;100034.81;5059380;28;20056;-60
2021/05/13 07:26:00;;;;;;;14.15;6.53;;;;;;;13.59;100.00;100043.03;5060650;28;20040;-60
2021/05/13 07:28:27;;;;;;;11.25;7.40;;;;;;;13.53;100.00;100040.31;5057756;28;20056;-60
2021/05/13 07:30:55;;;;;;;15.52;8.45;;;;;;;13.48;100.00;100042.75;5059665;28;20348;-60
2021/05/13 07:33:22;;;;;;;26.20;9.10;;;;;;;13.54;100.00;100039.31;5063602;28;20047;-60
2021/05/13 07:35:51;;;;;;;17.02;9.80;;;;;;;13.49;100.00;100033.69;5058055;28;20047;-60
2021/05/13 07:38:18;;;;;;;17.13;9.07;;;;;;;13.22;100.00;100030.88;5060438;28;20048;-60
2021/05/13 07:40:46;;;;;;;21.92;8.52;;;;;;;13.14;100.00;100036.41;5057509;28;20041;-60
2021/05/13 07:43:13;;;;;;;19.23;8.75;;;;;;;13.53;100.00;100041.13;5057979;28;20336;-60
2021/05/13 07:45:42;;;;;;;13.63;7.53;;;;;;;13.72;100.00;100036.88;5058793;28;20134;-60
2021/05/13 07:48:10;;;;;;;13.73;7.72;;;;;;;13.92;100.00;100042.28;5060380;28;20047;-60
2021/05/13 07:50:37;;;;;;;10.77;6.10;;;;;;;14.26;100.00;100037.75;5059137;28;20052;-60
2021/05/13 07:53:06;;;;;;;16.17;8.07;;;;;;;14.61;100.00;100034.00;5058607;28;20383;-60
2021/05/13 07:55:34;;;;;;;10.65;6.38;;;;;;;15.21;100.00;100036.59;5058593;28;20036;-60
2021/05/13 07:58:02;;;;;;;16.55;7.82;;;;;;;15.95;100.00;100030.88;5055706;28;20049;-60
2021/05/13 08:00:31;;;;;;;12.98;7.28;;;;;;;16.46;100.00;100032.53;5061795;28;20048;-60
2021/05/13 08:02:58;;;;;;;11.50;6.03;;;;;;;16.94;100.00;100032.91;5061609;28;20440;-61
2021/05/13 08:05:25;;;;;;;9.18;5.47;;;;;;;17.13;100.00;100034.56;5057412;28;20424;-60
2021/05/13 08:07:53;;;;;;;8.82;5.60;;;;;;;17.71;100.00;100027.78;5060847;28;20505;-60
2021/05/13 08:10:21;;;;;;;6.95;4.07;;;;;;;18.40;100.00;100024.69;5058528;28;20463;-60
2021/05/13 08:12:49;;;;;;;8.15;4.43;;;;;;;18.52;100.00;100029.28;5059114;28;20491;-61
2021/05/13 08:15:16;;;;;;;8.25;4.07;;;;;;;18.24;100.00;100019.97;5055986;28;20345;-61
2021/05/13 08:17:44;;;;;;;5.70;3.38;;;;;;;17.19;100.00;100028.25;5063196;28;20345;-61
2021/05/13 08:20:14;;;;;;;8.23;3.50;;;;;;;17.77;100.00;100026.06;5060941;28;20060;-60
2021/05/13 08:22:42;;;;;;;6.20;3.05;;;;;;;17.75;100.00;100032.72;5060326;28;20060;-60
2021/05/13 08:25:11;;;;;;;8.38;4.28;;;;;;;17.81;100.00;100034.53;5054737;28;20102;-60
2021/05/13 08:27:39;;;;;;;6.60;3.33;;;;;;;18.47;100.00;100027.28;5061484;28;20048;-61
2021/05/13 08:30:08;;;;;;;9.10;4.78;;;;;;;18.39;100.00;100019.53;5056999;28;20044;-60
2021/05/13 08:32:35;;;;;;;11.95;4.55;;;;;;;18.38;100.00;100028.69;5055770;28;20320;-60
2021/05/13 08:35:03;;;;;;;8.77;4.40;;;;;;;18.41;100.00;100023.63;5053131;28;20045;-61
2021/05/13 08:37:31;;;;;;;9.65;4.38;;;;;;;18.52;100.00;100027.38;5059826;28;20049;-60
2021/05/13 08:39:58;;;;;;;8.35;3.45;;;;;;;18.57;100.00;100030.22;5059942;28;20033;-60
2021/05/13 08:42:26;;;;;;;12.13;4.22;;;;;;;18.93;100.00;100032.94;5058923;28;20071;-60
2021/05/13 08:44:54;;;;;;;9.00;5.43;;;;;;;19.01;100.00;100020.91;5058333;28;20040;-60
2021/05/13 08:47:22;;;;;;;9.52;4.28;;;;;;;18.58;100.00;100023.75;5056002;28;20309;-60
2021/05/13 08:49:49;;;;;;;10.50;4.95;;;;;;;18.78;100.00;100027.97;5061002;28;20060;-60
2021/05/13 08:52:18;;;;;;;8.30;3.55;;;;;;;19.57;100.00;100022.03;5059060;28;20037;-60
2021/05/13 08:54:52;;;;;;;10.60;4.40;;;;;;;19.57;100.00;100023.91;5053530;28;20051;-60
2021/05/13 08:57:20;;;;;;;6.78;3.72;;;;;;;18.75;100.00;100020.31;5060404;28;20322;-61
2021/05/13 08:59:48;;;;;;;9.02;4.47;;;;;;;18.19;100.00;100020.66;5053400;28;20118;-60
2021/05/13 09:02:17;;;;;;;10.43;4.13;;;;;;;19.00;100.00;100016.56;5056847;28;20451;-62
2021/05/13 09:04:47;;;;;;;10.60;4.38;;;;;;;20.10;100.00;100020.03;5059235;28;20376;-61
2021/05/13 09:07:21;;;;;;;9.02;3.45;;;;;;;19.84;100.00;100013.34;5066429;28;20075;-61
2021/05/13 09:10:04;;;;;;;8.93;3.85;;;;;;;20.18;100.00;100012.53;5059027;28;20045;-58
2021/05/13 09:12:34;;;;;;;9.95;3.92;;;;;;;20.10;100.00;100014.59;5057218;28;20041;-60
2021/05/13 09:15:08;;;;;;;9.32;3.78;;;;;;;19.51;100.00;100012.16;5055587;28;20061;-59
2021/05/13 09:17:37;;;;;;;9.15;4.32;;;;;;;19.95;100.00;100017.84;5059812;28;20040;-58
2021/05/13 09:20:07;;;;;;;6.68;3.80;;;;;;;19.21;100.00;100015.13;5059111;28;20033;-58
2021/05/13 09:22:34;;;;;;;8.57;4.40;;;;;;;19.20;100.00;100008.84;5059612;28;20048;-59
2021/05/13 09:25:04;;;;;;;8.27;3.85;;;;;;;19.19;100.00;100007.22;5057381;28;20036;-58
2021/05/13 09:27:34;;;;;;;8.80;4.57;;;;;;;20.09;100.00;100010.25;5061937;28;20036;-59
2021/05/13 09:30:14;;;;;;;11.23;4.40;;;;;;;20.12;100.00;100014.34;5061922;28;20039;-59
2021/05/13 09:32:43;;;;;;;8.77;3.83;;;;;;;20.38;100.00;100006.63;5060555;28;20049;-59
2021/05/13 09:35:13;;;;;;;8.55;4.30;;;;;;;21.57;100.00;100011.72;5058320;28;20044;-59
2021/05/13 09:37:43;;;;;;;6.63;3.83;;;;;;;22.44;100.00;100004.34;5060473;28;20097;-59
2021/05/13 09:40:12;;;;;;;8.43;4.35;;;;;;;21.56;100.00;100007.34;5064891;28;20056;-59
2021/05/13 09:42:40;;;;;;;10.90;5.38;;;;;;;19.70;100.00;100009.25;5064523;28;20052;-59
2021/05/13 09:45:09;;;;;;;8.05;3.70;;;;;;;21.62;100.00;100000.91;5061368;28;20357;-59
2021/05/13 09:47:37;;;;;;;9.20;4.32;;;;;;;21.03;100.00;100001.56;5061652;28;20318;-59
2021/05/13 09:50:08;;;;;;;7.82;3.90;;;;;;;21.53;100.00;100008.69;5060108;28;20054;-59
2021/05/13 09:52:50;;;;;;;6.00;3.50;;;;;;;20.91;100.00;100002.53;5057890;28;20048;-59
2021/05/13 09:55:25;;;;;;;7.63;3.83;;;;;;;20.77;100.00;100012.91;5056075;28;20045;-61
2021/05/13 09:57:58;;;;;;;9.80;4.05;;;;;;;21.04;100.00;100014.09;5060062;28;20092;-58
2021/05/13 10:00:44;;;;;;;9.20;4.20;;;;;;;20.46;100.00;100008.91;5057901;28;20425;-61
2021/05/13 10:03:13;;;;;;;7.28;3.72;;;;;;;21.28;100.00;100010.03;5061979;28;20065;-59
2021/05/13 10:05:44;;;;;;;5.20;3.63;;;;;;;22.00;100.00;100005.34;5059484;28;20336;-59
2021/05/13 10:08:11;;;;;;;8.32;4.13;;;;;;;21.41;100.00;100014.25;5061233;28;20044;-61
2021/05/13 10:10:40;;;;;;;8.25;3.75;;;;;;;21.76;100.00;100009.44;5062785;28;20045;-59
2021/05/13 10:13:08;;;;;;;7.50;4.10;;;;;;;21.37;100.00;100015.00;5056131;28;20332;-61
2021/05/13 10:15:40;;;;;;;8.10;3.63;;;;;;;21.68;100.00;100018.91;5062352;28;20318;-60
2021/05/13 10:18:13;;;;;;;4.82;3.20;;;;;;;21.30;100.00;100018.72;5058147;28;20076;-58
2021/05/13 10:20:42;;;;;;;6.70;3.20;;;;;;;20.61;100.00;100014.56;5058904;28;20055;-61
2021/05/13 10:23:12;;;;;;;5.15;3.80;;;;;;;20.41;100.00;100027.81;5057896;28;20298;-58
2021/05/13 10:25:40;;;;;;;5.50;3.70;;;;;;;20.30;100.00;100021.44;5057446;28;20444;-61
2021/05/13 10:28:12;;;;;;;10.20;4.70;;;;;;;19.64;100.00;100019.19;5058940;28;20051;-60
2021/05/13 10:30:40;;;;;;;9.15;3.75;;;;;;;18.93;100.00;100025.63;5062258;28;20390;-60
2021/05/13 10:33:16;;;;;;;7.90;3.88;;;;;;;19.29;100.00;100033.66;5058700;28;20036;-60
2021/05/13 10:36:06;;;;;;;11.25;4.18;;;;;;;19.38;100.00;100037.66;5059954;28;20041;-60
2021/05/13 10:38:41;;;;;;;7.15;3.70;;;;;;;19.65;100.00;100036.22;5058659;28;20075;-60
2021/05/13 10:41:35;;;;;;;5.78;3.90;;;;;;;19.04;100.00;100036.69;5057558;28;20314;-58
2021/05/13 10:44:37;;;;;;;9.45;4.18;;;;;;;18.52;100.00;100038.19;5055675;28;20066;-58
2021/05/13 10:47:07;;;;;;;6.10;3.33;;;;;;;17.94;100.00;100038.94;5057599;28;20309;-58
2021/05/13 10:49:48;;;;;;;8.32;4.07;;;;;;;19.62;100.00;100037.56;5061545;28;20063;-58
2021/05/13 10:52:38;;;;;;;6.45;4.25;;;;;;;17.33;100.00;100042.41;5057541;28;20061;-58
2021/05/13 10:55:07;;;;;;;11.38;5.68;;;;;;;16.88;100.00;100031.94;5056526;28;20457;-60
2021/05/13 10:57:49;;;;;;;9.55;4.20;;;;;;;18.12;100.00;100036.16;5056301;28;20424;-58
2021/05/13 11:00:25;;;;;;;7.80;4.13;;;;;;;18.09;100.00;100039.34;5056288;28;20144;-60
2021/05/13 11:02:52;;;;;;;6.93;4.22;;;;;;;17.57;100.00;100036.31;5060993;28;20095;-60
2021/05/13 11:05:38;;;;;;;8.40;4.22;;;;;;;17.67;100.00;100039.28;5056095;28;20048;-61
2021/05/13 11:08:41;;;;;;;6.90;4.00;;;;;;;17.10;100.00;100043.13;5055736;28;20045;-61
2021/05/13 11:11:10;;;;;;;11.23;4.63;;;;;;;16.31;100.00;100049.00;5059158;28;20036;-61
2021/05/13 11:13:43;;;;;;;7.57;4.43;;;;;;;16.11;100.00;100049.16;5057345;28;20056;-60
2021/05/13 11:16:34;;;;;;;8.43;5.68;;;;;;;14.58;100.00;100055.94;5056983;28;20479;-60
2021/05/13 11:19:15;;;;;;;7.40;5.65;;;;;;;15.01;100.00;100068.09;5060748;28;20466;-60
2021/05/13 11:21:57;;;;;;;9.80;7.18;;;;;;;15.13;100.00;100069.91;5058715;28;20039;-60
2021/05/13 11:24:37;;;;;;;11.15;8.05;;;;;;;15.14;100.00;100060.00;5055180;28;20049;-60